createdAt,value
2023-01-27T00:01:00.595Z,5.57
2023-01-27T00:03:32.011Z,6.20
2023-01-27T00:05:58.893Z,5.43
2023-01-27T00:08:25.916Z,5.57
2023-01-27T00:10:57.564Z,5.97
2023-01-27T00:13:24.567Z,5.82
2023-01-27T00:15:51.488Z,5.87
2023-01-27T00:18:18.662Z,5.80
2023-01-27T00:20:45.497Z,5.87
2023-01-27T00:23:17.929Z,6.05
2023-01-27T00:25:48.172Z,5.43
2023-01-27T00:28:15.035Z,5.85
2023-01-27T00:30:41.877Z,6.20
2023-01-27T00:33:09.542Z,6.00
2023-01-27T00:35:36.571Z,5.90
2023-01-27T00:38:03.574Z,5.70
2023-01-27T00:40:30.985Z,5.43
2023-01-27T00:42:57.899Z,5.70
2023-01-27T00:45:27.611Z,5.85
2023-01-27T00:47:55.654Z,5.43
2023-01-27T00:50:22.558Z,5.60
2023-01-27T00:52:49.382Z,5.80
2023-01-27T00:55:16.545Z,5.97
2023-01-27T00:57:46.494Z,5.45
2023-01-27T01:00:14.450Z,5.43
2023-01-27T01:02:42.171Z,5.70
2023-01-27T01:05:09.357Z,5.40
2023-01-27T01:07:36.320Z,6.07
2023-01-27T01:10:03.891Z,5.43
2023-01-27T01:12:30.652Z,5.72
2023-01-27T01:14:57.382Z,5.40
2023-01-27T01:17:24.418Z,6.40
2023-01-27T01:19:58.010Z,5.62
2023-01-27T01:22:25.064Z,5.55
2023-01-27T01:24:52.468Z,5.35
2023-01-27T01:27:19.270Z,5.50
2023-01-27T01:29:49.068Z,5.40
2023-01-27T01:32:15.996Z,5.68
2023-01-27T01:34:43.721Z,5.70
2023-01-27T01:37:12.678Z,5.32
2023-01-27T01:39:39.858Z,4.90
2023-01-27T01:42:06.664Z,5.70
2023-01-27T01:44:33.823Z,5.47
2023-01-27T01:47:01.072Z,5.40
2023-01-27T01:49:40.543Z,5.47
2023-01-27T01:52:15.359Z,5.22
2023-01-27T01:54:52.654Z,5.65
2023-01-27T01:57:33.240Z,5.40
2023-01-27T02:00:04.675Z,5.40
2023-01-27T02:02:31.900Z,5.53
2023-01-27T02:05:09.305Z,5.37
2023-01-27T02:07:49.565Z,5.47
2023-01-27T02:10:16.674Z,5.50
2023-01-27T02:12:43.569Z,5.53
2023-01-27T02:15:17.051Z,5.50
2023-01-27T02:17:44.777Z,5.68
2023-01-27T02:20:31.483Z,5.75
2023-01-27T02:23:10.176Z,5.70
2023-01-27T02:25:56.071Z,5.22
2023-01-27T02:28:26.440Z,5.50
2023-01-27T02:30:53.458Z,5.35
2023-01-27T02:33:20.479Z,5.10
2023-01-27T02:36:00.280Z,5.53
2023-01-27T02:38:31.462Z,5.45
2023-01-27T02:41:03.785Z,5.43
2023-01-27T02:43:30.805Z,5.30
2023-01-27T02:45:57.708Z,5.47
2023-01-27T02:48:26.382Z,5.57
2023-01-27T02:50:53.312Z,5.05
2023-01-27T02:53:20.118Z,4.97
2023-01-27T02:55:47.190Z,5.00
2023-01-27T02:58:13.995Z,4.93
2023-01-27T03:00:40.915Z,5.50
2023-01-27T03:03:07.842Z,4.82
2023-01-27T03:05:37.967Z,5.28
2023-01-27T03:08:07.041Z,5.45
2023-01-27T03:10:34.141Z,5.40
2023-01-27T03:13:01.076Z,5.30
2023-01-27T03:15:28.160Z,5.12
2023-01-27T03:17:55.213Z,5.65
2023-01-27T03:20:22.590Z,5.12
2023-01-27T03:22:50.019Z,5.50
2023-01-27T03:25:17.384Z,4.85
2023-01-27T03:27:44.257Z,5.37
2023-01-27T03:30:12.304Z,5.30
2023-01-27T03:32:39.309Z,5.22
2023-01-27T03:35:06.966Z,4.70
2023-01-27T03:37:33.962Z,5.20
2023-01-27T03:40:01.319Z,5.18
2023-01-27T03:42:28.093Z,5.10
2023-01-27T03:44:55.045Z,5.10
2023-01-27T03:47:22.047Z,5.18
2023-01-27T03:49:48.995Z,4.80
2023-01-27T03:52:19.323Z,4.50
2023-01-27T03:54:46.614Z,4.65
2023-01-27T03:57:13.586Z,4.75
2023-01-27T03:59:40.937Z,4.75
2023-01-27T04:02:07.852Z,4.62
2023-01-27T04:04:34.724Z,4.97
2023-01-27T04:07:01.519Z,4.75
2023-01-27T04:09:39.467Z,4.32
2023-01-27T04:12:07.536Z,4.82
2023-01-27T04:14:37.278Z,4.65
2023-01-27T04:17:07.155Z,4.47
2023-01-27T04:19:39.034Z,4.60
2023-01-27T04:22:07.627Z,4.55
2023-01-27T04:24:34.946Z,4.18
2023-01-27T04:27:10.790Z,5.00
2023-01-27T04:29:40.082Z,4.45
2023-01-27T04:32:08.870Z,4.47
2023-01-27T04:34:35.860Z,4.62
2023-01-27T04:37:03.782Z,4.62
2023-01-27T04:39:30.727Z,4.22
2023-01-27T04:41:58.655Z,4.18
2023-01-27T04:44:26.046Z,4.50
2023-01-27T04:46:53.436Z,4.25
2023-01-27T04:49:20.450Z,4.60
2023-01-27T04:51:47.561Z,4.03
2023-01-27T04:54:14.565Z,4.25
2023-01-27T04:56:54.950Z,4.18
2023-01-27T04:59:21.870Z,4.12
2023-01-27T05:01:49.342Z,3.72
2023-01-27T05:04:22.554Z,4.60
2023-01-27T05:06:49.449Z,4.15
2023-01-27T05:09:20.059Z,3.72
2023-01-27T05:11:47.029Z,4.00
2023-01-27T05:14:13.928Z,3.80
2023-01-27T05:16:40.738Z,3.90
2023-01-27T05:19:09.625Z,3.95
2023-01-27T05:21:39.181Z,4.00
2023-01-27T05:24:06.151Z,3.92
2023-01-27T05:26:33.009Z,3.90
2023-01-27T05:29:03.088Z,3.83
2023-01-27T05:31:31.313Z,3.83
2023-01-27T05:34:00.087Z,3.40
2023-01-27T05:36:27.663Z,3.40
2023-01-27T05:38:58.136Z,3.40
2023-01-27T05:41:25.397Z,3.53
2023-01-27T05:43:56.883Z,3.67
2023-01-27T05:52:56.920Z,5.40
2023-01-27T05:55:30.510Z,5.30
2023-01-27T05:57:57.470Z,5.10
2023-01-27T06:00:24.550Z,4.93
2023-01-27T06:02:51.555Z,4.85
2023-01-27T06:05:18.576Z,4.05
2023-01-27T06:07:45.425Z,3.78
2023-01-27T06:10:15.891Z,3.83
2023-01-27T06:12:45.661Z,3.70
2023-01-27T06:15:12.892Z,3.60
2023-01-27T06:17:39.800Z,3.80
2023-01-27T06:20:06.857Z,3.80
2023-01-27T06:22:33.723Z,3.50
2023-01-27T06:25:03.636Z,3.90
2023-01-27T06:27:33.708Z,3.40
2023-01-27T06:30:00.811Z,3.80
2023-01-27T06:32:27.680Z,3.33
2023-01-27T06:34:54.650Z,3.40
2023-01-27T06:37:24.758Z,3.50
2023-01-27T06:39:55.222Z,3.30
2023-01-27T06:42:22.108Z,3.50
2023-01-27T06:44:51.427Z,3.30
2023-01-27T06:47:21.999Z,3.65
2023-01-27T06:49:52.538Z,3.95
2023-01-27T06:52:19.418Z,4.10
2023-01-27T06:54:49.488Z,3.53
2023-01-27T06:57:19.779Z,3.75
2023-01-27T06:59:46.671Z,3.20
2023-01-27T07:02:13.780Z,3.15
2023-01-27T07:04:40.766Z,3.08
2023-01-27T07:07:07.695Z,3.50
2023-01-27T07:09:51.824Z,3.45
2023-01-27T07:12:19.540Z,3.08
2023-01-27T07:14:46.519Z,3.10
2023-01-27T07:17:13.378Z,3.70
2023-01-27T07:19:40.352Z,3.67
2023-01-27T07:22:07.308Z,3.72
2023-01-27T07:24:34.334Z,3.50
2023-01-27T07:27:06.825Z,3.42
2023-01-27T07:29:33.726Z,3.20
2023-01-27T07:32:00.923Z,3.70
2023-01-27T07:34:31.035Z,3.10
2023-01-27T07:36:57.790Z,3.00
2023-01-27T07:39:28.423Z,3.05
2023-01-27T07:41:55.576Z,3.20
2023-01-27T07:44:27.475Z,3.50
2023-01-27T07:46:54.652Z,3.20
2023-01-27T07:49:21.524Z,3.08
2023-01-27T07:51:48.454Z,3.30
2023-01-27T07:54:15.391Z,3.08
2023-01-27T07:56:42.182Z,3.20
2023-01-27T07:59:11.544Z,3.22
2023-01-27T08:01:38.777Z,3.12
2023-01-27T08:04:05.610Z,3.30
2023-01-27T08:06:32.532Z,4.68
2023-01-27T08:08:59.325Z,4.43
2023-01-27T08:11:26.492Z,4.75
2023-01-27T08:13:53.724Z,5.00
2023-01-27T08:16:23.433Z,5.22
2023-01-27T08:18:53.276Z,4.90
2023-01-27T08:21:20.431Z,6.57
2023-01-27T08:23:47.527Z,6.53
2023-01-27T08:26:14.446Z,6.53
2023-01-27T08:28:44.949Z,6.15
2023-01-27T08:31:15.024Z,5.90
2023-01-27T08:33:46.925Z,5.87
2023-01-27T08:36:17.900Z,5.35
2023-01-27T08:38:49.003Z,5.43
2023-01-27T08:41:19.894Z,5.93
2023-01-27T08:43:47.483Z,4.97
2023-01-27T08:46:15.008Z,5.07
2023-01-27T08:48:45.235Z,5.10
2023-01-27T08:51:16.345Z,5.30
2023-01-27T08:53:46.550Z,4.90
2023-01-27T08:56:17.668Z,4.70
2023-01-27T08:58:47.465Z,4.62
2023-01-27T09:01:17.139Z,4.87
2023-01-27T09:03:47.212Z,4.62
2023-01-27T09:06:17.577Z,4.68
2023-01-27T09:08:47.391Z,4.82
2023-01-27T09:11:20.117Z,4.62
2023-01-27T09:13:46.915Z,4.32
2023-01-27T09:16:16.535Z,4.90
2023-01-27T09:18:43.273Z,4.47
2023-01-27T09:21:10.403Z,4.47
2023-01-27T09:23:40.624Z,4.30
2023-01-27T09:26:07.329Z,4.53
2023-01-27T09:28:36.591Z,4.07
2023-01-27T09:31:03.429Z,4.93
2023-01-27T09:33:33.033Z,4.05
2023-01-27T09:36:14.485Z,4.35
2023-01-27T09:38:49.844Z,3.95
2023-01-27T09:41:38.664Z,3.78
2023-01-27T09:44:07.972Z,4.07
2023-01-27T09:47:19.652Z,4.12
2023-01-27T09:50:24.642Z,4.10
2023-01-27T09:53:24.152Z,4.22
2023-01-27T09:55:58.328Z,4.03
2023-01-27T09:58:27.834Z,4.30
2023-01-27T10:01:22.784Z,3.60
2023-01-27T10:03:51.068Z,3.70
2023-01-27T10:06:36.577Z,3.97
2023-01-27T10:09:06.165Z,3.95
2023-01-27T10:12:04.964Z,3.85
2023-01-27T10:15:09.352Z,3.65
2023-01-27T10:17:58.516Z,3.62
2023-01-27T10:21:00.303Z,3.70
2023-01-27T10:23:54.914Z,3.67
2023-01-27T10:26:35.873Z,3.80
2023-01-27T10:29:25.277Z,3.55
2023-01-27T10:32:07.578Z,3.80
2023-01-27T10:34:48.455Z,3.40
2023-01-27T10:37:42.384Z,4.37
2023-01-27T10:40:27.819Z,4.60
2023-01-27T10:43:10.019Z,4.43
2023-01-27T10:45:40.882Z,4.40
2023-01-27T10:48:30.379Z,4.40
2023-01-27T10:51:04.066Z,4.32
2023-01-27T10:53:36.792Z,4.07
2023-01-27T10:56:12.367Z,4.15
2023-01-27T10:58:52.993Z,3.70
2023-01-27T11:01:27.161Z,4.55
2023-01-27T11:04:21.585Z,3.80
2023-01-27T11:06:58.966Z,3.30
2023-01-27T11:09:38.045Z,3.35
2023-01-27T11:12:11.422Z,3.70
2023-01-27T11:14:52.256Z,4.62
2023-01-27T11:17:42.605Z,3.22
2023-01-27T11:20:27.837Z,4.15
2023-01-27T11:22:57.662Z,3.65
2023-01-27T11:25:35.095Z,3.60
2023-01-27T11:28:26.027Z,3.62
2023-01-27T11:30:58.515Z,3.30
2023-01-27T11:33:39.176Z,3.40
2023-01-27T11:36:10.259Z,4.03
2023-01-27T11:38:40.536Z,4.70
2023-01-27T11:41:11.271Z,3.60
2023-01-27T11:43:41.899Z,3.37
2023-01-27T11:46:15.511Z,2.87
2023-01-27T11:48:50.541Z,3.30
2023-01-27T11:51:24.896Z,3.33
2023-01-27T11:54:10.662Z,3.05
2023-01-27T11:56:46.393Z,3.10
2023-01-27T11:59:24.893Z,3.40
2023-01-27T12:02:17.560Z,3.37
2023-01-27T12:05:02.057Z,3.40
2023-01-27T12:08:05.226Z,3.22
2023-01-27T12:10:40.781Z,3.05
2023-01-27T12:13:26.016Z,3.42
2023-01-27T12:16:04.492Z,3.47
2023-01-27T12:18:47.575Z,3.15
2023-01-27T12:21:22.390Z,3.35
2023-01-27T12:24:00.679Z,3.70
2023-01-27T12:26:51.962Z,3.80
2023-01-27T12:29:34.455Z,3.60
2023-01-27T12:32:12.762Z,2.87
2023-01-27T12:34:44.908Z,3.65
2023-01-27T12:37:23.921Z,3.53
2023-01-27T12:39:56.764Z,3.50
2023-01-27T12:42:42.347Z,3.15
2023-01-27T12:45:30.693Z,3.20
2023-01-27T12:48:04.111Z,3.22
2023-01-27T12:50:37.931Z,3.75
2023-01-27T12:53:16.361Z,3.20
2023-01-27T12:56:17.147Z,3.08
2023-01-27T12:59:03.717Z,3.65
2023-01-27T13:01:57.577Z,3.60
2023-01-27T13:04:26.036Z,3.12
2023-01-27T13:07:17.084Z,3.35
2023-01-27T13:10:05.647Z,3.42
2023-01-27T13:12:48.523Z,3.30
2023-01-27T13:15:26.635Z,2.80
2023-01-27T13:17:58.272Z,3.30
2023-01-27T13:20:49.129Z,3.40
2023-01-27T13:23:38.878Z,3.22
2023-01-27T13:26:41.718Z,3.37
2023-01-27T13:29:25.913Z,3.55
2023-01-27T13:32:15.765Z,3.60
2023-01-27T13:35:17.236Z,3.53
2023-01-27T13:38:02.238Z,3.10
2023-01-27T13:40:37.087Z,3.58
2023-01-27T13:43:18.927Z,3.20
2023-01-27T13:46:08.676Z,3.40
2023-01-27T13:48:57.598Z,3.78
2023-01-27T13:51:30.219Z,3.10
2023-01-27T13:54:02.693Z,3.28
2023-01-27T13:56:38.436Z,3.60
2023-01-27T13:59:24.079Z,3.30
2023-01-27T14:02:00.565Z,3.60
2023-01-27T14:04:57.800Z,4.57
2023-01-27T14:07:49.928Z,3.70
2023-01-27T14:10:34.624Z,3.75
2023-01-27T14:13:20.187Z,3.65
2023-01-27T14:16:07.481Z,4.00
2023-01-27T14:18:39.699Z,3.87
2023-01-27T14:21:40.170Z,3.70
2023-01-27T14:24:38.820Z,3.62
2023-01-27T14:27:13.759Z,3.75
2023-01-27T14:30:08.220Z,3.37
2023-01-27T14:32:49.986Z,3.42
2023-01-27T14:35:38.617Z,3.90
2023-01-27T14:38:09.915Z,3.87
2023-01-27T14:40:46.206Z,3.95
2023-01-27T14:43:34.268Z,3.90
2023-01-27T14:46:33.059Z,3.90
2023-01-27T14:49:10.846Z,4.15
2023-01-27T14:52:05.078Z,3.90
2023-01-27T14:55:01.338Z,3.58
2023-01-27T14:57:41.923Z,3.80
2023-01-27T15:00:57.212Z,4.68
2023-01-27T15:04:05.856Z,4.07
2023-01-27T15:06:58.859Z,3.70
2023-01-27T15:09:26.251Z,3.97
2023-01-27T15:12:31.838Z,4.22
2023-01-27T15:15:22.551Z,4.28
2023-01-27T15:18:08.700Z,3.75
2023-01-27T15:20:46.013Z,4.07
2023-01-27T15:23:32.769Z,3.67
2023-01-27T15:26:05.424Z,3.83
2023-01-27T15:28:40.022Z,4.25
2023-01-27T15:31:16.686Z,3.90
2023-01-27T15:34:24.495Z,3.75
2023-01-27T15:37:13.196Z,4.20
2023-01-27T15:40:12.036Z,4.00
2023-01-27T15:43:00.610Z,4.10
2023-01-27T15:45:40.545Z,4.37
2023-01-27T15:48:13.524Z,3.97
2023-01-27T15:50:59.490Z,4.12
2023-01-27T15:53:39.640Z,4.37
2023-01-27T15:56:07.234Z,4.20
2023-01-27T15:58:37.778Z,4.45
2023-01-27T16:01:11.851Z,4.25
2023-01-27T16:03:41.906Z,4.68
2023-01-27T16:06:15.076Z,5.22
2023-01-27T16:11:39.629Z,4.68
2023-01-27T16:14:12.220Z,4.30
2023-01-27T16:17:19.661Z,4.30
2023-01-27T16:19:58.170Z,4.75
2023-01-27T16:22:26.970Z,5.07
2023-01-27T16:25:03.906Z,4.60
2023-01-27T16:27:42.483Z,4.60
2023-01-27T16:30:28.089Z,4.53
2023-01-27T16:33:26.848Z,4.68
2023-01-27T16:36:03.780Z,4.20
2023-01-27T16:38:38.802Z,4.78
2023-01-27T16:41:17.542Z,4.90
2023-01-27T16:43:48.977Z,4.95
2023-01-27T16:46:37.605Z,4.55
2023-01-27T16:49:19.926Z,4.30
2023-01-27T16:52:00.395Z,4.07
2023-01-27T16:54:36.731Z,4.55
2023-01-27T16:57:28.517Z,4.97
2023-01-27T16:59:57.898Z,4.78
2023-01-27T17:02:33.768Z,4.50
2023-01-27T17:05:06.637Z,4.57
2023-01-27T17:07:39.706Z,4.55
2023-01-27T17:12:51.612Z,4.72
2023-01-27T17:15:38.122Z,4.85
2023-01-27T17:18:19.690Z,4.60
2023-01-27T17:20:58.115Z,4.93
2023-01-27T17:23:34.373Z,5.60
2023-01-27T17:26:19.551Z,5.40
2023-01-27T17:28:53.504Z,5.00
2023-01-27T17:31:26.689Z,5.03
2023-01-27T17:34:02.400Z,5.03
2023-01-27T17:36:29.494Z,5.35
2023-01-27T17:38:59.693Z,5.22
2023-01-27T17:41:36.707Z,6.25
2023-01-27T17:44:12.273Z,5.32
2023-01-27T17:46:48.761Z,5.97
2023-01-27T17:49:21.282Z,5.30
2023-01-27T17:51:57.775Z,5.25
2023-01-27T17:54:39.539Z,5.18
2023-01-27T17:57:21.278Z,5.90
2023-01-27T17:59:54.698Z,7.05
2023-01-27T18:04:58.833Z,6.05
2023-01-27T18:07:28.550Z,6.70
2023-01-27T18:10:03.410Z,6.30
2023-01-27T18:12:39.073Z,6.15
2023-01-27T18:15:37.544Z,6.07
2023-01-27T18:18:26.490Z,6.37
2023-01-27T18:21:15.920Z,6.65
2023-01-27T18:23:53.062Z,6.32
2023-01-27T18:26:44.801Z,6.60
2023-01-27T18:29:35.716Z,6.68
2023-01-27T18:32:17.106Z,6.47
2023-01-27T18:34:58.943Z,6.12
2023-01-27T18:37:35.637Z,5.35
2023-01-27T18:40:28.572Z,6.20
2023-01-27T18:43:01.502Z,5.37
2023-01-27T18:45:31.413Z,5.87
2023-01-27T18:48:01.492Z,5.70
2023-01-27T18:50:32.248Z,6.57
2023-01-27T18:53:00.138Z,5.35
2023-01-27T18:55:35.961Z,6.03
2023-01-27T18:58:06.698Z,5.60
2023-01-27T19:00:50.898Z,5.93
2023-01-27T19:03:27.489Z,5.70
2023-01-27T19:05:54.857Z,6.50
2023-01-27T19:08:24.457Z,5.60
2023-01-27T19:10:58.471Z,6.28
2023-01-27T19:13:28.876Z,6.00
2023-01-27T19:15:58.120Z,5.72
2023-01-27T19:18:39.293Z,6.37
2023-01-27T19:21:11.629Z,6.20
2023-01-27T19:24:06.448Z,6.37
2023-01-27T19:26:37.140Z,6.10
2023-01-27T19:29:11.773Z,5.87
2023-01-27T19:31:45.244Z,6.00
2023-01-27T19:34:17.770Z,6.03
2023-01-27T19:36:51.050Z,5.78
2023-01-27T19:39:22.097Z,5.60
2023-01-27T19:41:52.497Z,5.70
2023-01-27T19:44:24.742Z,5.45
2023-01-27T19:46:54.516Z,5.30
2023-01-27T19:49:24.423Z,5.35
2023-01-27T19:51:53.990Z,5.15
2023-01-27T19:54:20.741Z,5.15
2023-01-27T19:56:47.679Z,5.05
2023-01-27T19:59:14.424Z,5.93
2023-01-27T20:01:41.070Z,5.62
2023-01-27T20:04:07.884Z,5.40
2023-01-27T20:06:35.739Z,5.82
2023-01-27T20:09:09.914Z,5.43
2023-01-27T20:11:44.373Z,4.95
2023-01-27T20:14:16.674Z,5.68
2023-01-27T20:16:47.234Z,5.62
2023-01-27T20:19:15.432Z,5.47
2023-01-27T20:21:43.376Z,5.60
2023-01-27T20:24:18.163Z,5.07
2023-01-27T20:26:48.722Z,5.65
2023-01-27T20:29:22.303Z,5.20
2023-01-27T20:31:49.106Z,5.30
2023-01-27T20:34:22.714Z,5.60
2023-01-27T20:36:53.340Z,5.43
2023-01-27T20:39:23.693Z,5.72
2023-01-27T20:41:53.580Z,5.62
2023-01-27T20:44:28.568Z,5.68
2023-01-27T20:46:58.643Z,5.30
2023-01-27T20:49:25.916Z,4.90
2023-01-27T20:51:53.493Z,5.70
2023-01-27T20:54:23.423Z,5.18
2023-01-27T20:56:56.412Z,4.90
2023-01-27T21:01:54.356Z,5.47
2023-01-27T21:04:26.677Z,5.20
2023-01-27T21:06:56.840Z,5.53
2023-01-27T21:09:34.251Z,5.45
2023-01-27T21:12:04.332Z,5.40
2023-01-27T21:14:39.285Z,5.05
2023-01-27T21:17:07.260Z,5.35
2023-01-27T21:19:34.206Z,5.75
2023-01-27T21:22:01.299Z,5.15
2023-01-27T21:24:28.116Z,6.12
2023-01-27T21:26:54.922Z,4.90
2023-01-27T21:29:21.685Z,5.30
2023-01-27T21:31:54.207Z,5.75
2023-01-27T21:34:24.341Z,5.70
2023-01-27T21:36:54.176Z,5.70
2023-01-27T21:39:27.485Z,5.45
2023-01-27T21:41:54.645Z,5.15
2023-01-27T21:44:27.605Z,5.30
2023-01-27T21:49:21.842Z,6.07
2023-01-27T21:51:50.315Z,5.97
2023-01-27T21:54:17.205Z,5.75
2023-01-27T21:56:47.515Z,5.85
2023-01-27T21:59:19.786Z,5.90
2023-01-27T22:01:53.746Z,5.62
2023-01-27T22:04:21.171Z,6.10
2023-01-27T22:06:48.044Z,6.68
2023-01-27T22:09:21.560Z,6.40
2023-01-27T22:11:48.474Z,5.78
2023-01-27T22:14:15.480Z,6.40
2023-01-27T22:16:50.108Z,6.07
2023-01-27T22:19:19.980Z,5.65
2023-01-27T22:21:49.905Z,5.85
2023-01-27T22:24:20.321Z,5.68
2023-01-27T22:26:50.848Z,5.35
2023-01-27T22:29:21.463Z,6.40
2023-01-27T22:31:48.638Z,6.15
2023-01-27T22:34:16.944Z,6.15
2023-01-27T22:36:44.600Z,6.32
2023-01-27T22:39:18.925Z,6.60
2023-01-27T22:41:46.608Z,5.65
2023-01-27T22:44:20.298Z,6.30
2023-01-27T22:46:53.791Z,6.03
2023-01-27T22:49:58.391Z,6.78
2023-01-27T22:52:28.958Z,5.72
2023-01-27T22:54:58.854Z,6.78
2023-01-27T22:57:27.975Z,6.37
2023-01-27T22:59:55.231Z,6.68
2023-01-27T23:02:22.721Z,6.03
2023-01-27T23:04:52.757Z,6.28
2023-01-27T23:07:23.360Z,5.97
2023-01-27T23:09:52.869Z,5.85
2023-01-27T23:12:23.005Z,6.37
2023-01-27T23:14:52.831Z,6.05
2023-01-27T23:17:22.802Z,6.07
2023-01-27T23:19:50.359Z,6.37
2023-01-27T23:22:21.565Z,5.85
2023-01-27T23:24:52.348Z,6.93
2023-01-27T23:27:27.449Z,6.62
2023-01-27T23:29:54.549Z,6.28
2023-01-27T23:32:28.191Z,6.50
2023-01-27T23:35:02.004Z,6.03
2023-01-27T23:37:39.992Z,6.78
2023-01-27T23:40:07.824Z,6.25
2023-01-27T23:42:37.551Z,6.47
2023-01-27T23:45:05.236Z,6.10
2023-01-27T23:47:35.202Z,6.28
2023-01-27T23:50:08.965Z,6.25
2023-01-27T23:52:36.308Z,6.00
2023-01-27T23:55:06.869Z,6.10
2023-01-27T23:57:37.743Z,5.90
